CheckWX is a tool to help pilots better visualize weather data.  It is not intended as a substitute for an official pre-flight weather briefing.

12:46:13 UTC

KPIB TAF
Hattiesburg / Laurel Regional Airport
Hattiesburg-Laurel, Mississippi, USA
KPIB 161120Z 1612/1712 00000KT P6SM SKC FM161400 21006KT P6SM SCT050

Jun-16@
12:00 UTC

Jun-16 @ 12:00 UTC

Jun-16@
14:00 UTC

Jun-16 @ 14:00 UTC

KPIB 161120Z 1612/1712 00000KT P6SM SKC
Cloud Levels
  • Clear skies

Jun-16@
14:00 UTC

Jun-16 @ 14:00 UTC

Jun-17@
12:00 UTC

Jun-17 @ 12:00 UTC

FM161400 21006KT P6SM SCT050

From

From Standard forecast or significant change

Wind
  • 210° at 6 KTS
Cloud Levels
  • Scattered at 5,000' AGL